Time;durP1;ratioP1;P1;durP2;ratioP2;P2;SDS_P1;SDS_P2;PMS_P1;PMS_P2;Temp;Humidity;BMP_temperature;BMP_pressure;BME280_temperature;BME280_humidity;BME280_pressure;Samples;Min_cycle;Max_cycle;Signal;HPM_P1;HPM_P2
2022/09/26 00:01:41;;;;;;;7.97;7.17;;;10.60;99.90;;;;;;5042076;28;20443;-79
2022/09/26 00:04:15;;;;;;;9.33;6.87;;;10.60;99.90;;;;;;5042800;28;20485;-80
2022/09/26 00:06:43;;;;;;;8.47;7.53;;;10.60;99.90;;;;;;5043425;28;20439;-80
2022/09/26 00:09:12;;;;;;;9.93;7.77;;;10.60;99.90;;;;;;5044424;28;20447;-80
2022/09/26 00:11:41;;;;;;;7.90;7.17;;;10.60;99.90;;;;;;5042195;28;20451;-78
2022/09/26 00:14:14;;;;;;;8.43;7.60;;;10.60;99.90;;;;;;5042615;28;20820;-78
2022/09/26 00:16:42;;;;;;;10.33;7.87;;;10.60;99.90;;;;;;5041893;28;20458;-78
2022/09/26 00:19:10;;;;;;;9.20;8.30;;;10.60;99.90;;;;;;5041245;28;20470;-80
2022/09/26 00:21:39;;;;;;;8.97;7.67;;;10.60;99.90;;;;;;5041696;28;20517;-78
2022/09/26 00:24:07;;;;;;;8.70;7.10;;;10.60;99.90;;;;;;5041107;28;20490;-79
2022/09/26 00:26:37;;;;;;;8.80;8.00;;;10.50;99.90;;;;;;5041012;28;20454;-79
2022/09/26 00:29:08;;;;;;;8.20;7.40;;;10.50;99.90;;;;;;5040512;28;20523;-79
2022/09/26 00:31:44;;;;;;;8.77;7.63;;;10.50;99.90;;;;;;5042108;28;20446;-78
2022/09/26 00:34:13;;;;;;;8.30;7.50;;;10.50;99.90;;;;;;5039820;28;20842;-78
2022/09/26 00:36:41;;;;;;;11.83;8.30;;;10.50;99.90;;;;;;5041925;28;20439;-78
2022/09/26 00:39:12;;;;;;;9.57;7.40;;;10.50;99.90;;;;;;5041561;28;20615;-79
2022/09/26 00:41:42;;;;;;;10.43;8.53;;;10.50;99.90;;;;;;5042636;28;20447;-80
2022/09/26 00:44:42;;;;;;;8.97;7.57;;;10.50;99.90;;;;;;5043062;28;20475;-80
2022/09/26 00:47:31;;;;;;;11.30;8.27;;;10.50;99.90;;;;;;5044576;28;20463;-80
2022/09/26 00:50:03;;;;;;;8.93;8.00;;;10.50;99.90;;;;;;5041881;28;20450;-79
2022/09/26 00:52:36;;;;;;;8.27;7.47;;;10.50;99.90;;;;;;5041660;28;20546;-77
2022/09/26 00:55:10;;;;;;;9.47;8.53;;;10.50;99.90;;;;;;5042446;28;20447;-79
2022/09/26 00:57:44;;;;;;;8.73;7.93;;;10.50;99.90;;;;;;5043623;28;20769;-77
2022/09/26 01:00:14;;;;;;;8.83;7.87;;;10.50;99.90;;;;;;5042410;28;20443;-81
2022/09/26 01:02:46;;;;;;;9.00;7.57;;;10.50;99.90;;;;;;5044231;28;20471;-79
2022/09/26 01:05:17;;;;;;;7.60;6.90;;;10.50;99.90;;;;;;5045275;28;20443;-79
2022/09/26 01:07:46;;;;;;;8.40;7.17;;;10.50;99.90;;;;;;5045927;28;20438;-80
2022/09/26 01:10:15;;;;;;;7.80;6.97;;;10.50;99.90;;;;;;5060935;28;20882;-80
2022/09/26 01:12:43;;;;;;;9.27;7.50;;;10.50;99.90;;;;;;5060794;28;20467;-79
2022/09/26 01:15:11;;;;;;;8.10;7.37;;;10.70;99.90;;;;;;5044103;28;20455;-79
2022/09/26 01:17:42;;;;;;;9.83;7.30;;;10.50;99.90;;;;;;5043549;28;20498;-79
2022/09/26 01:20:26;;;;;;;9.97;8.60;;;10.50;99.90;;;;;;5042660;28;20474;-79
2022/09/26 01:23:43;;;;;;;8.10;6.83;;;10.50;99.90;;;;;;5060063;28;20466;-80
2022/09/26 01:26:48;;;;;;;7.90;7.10;;;10.50;99.90;;;;;;5040490;28;20451;-78
2022/09/26 01:29:43;;;;;;;6.97;6.37;;;10.60;99.90;;;;;;5043458;28;20450;-80
2022/09/26 01:35:17;;;;;;;8.07;7.13;;;10.50;99.90;;;;;;5047103;28;20457;-79
2022/09/26 01:37:54;;;;;;;8.30;7.50;;;10.60;99.90;;;;;;5047618;28;20454;-80
2022/09/26 01:40:31;;;;;;;8.50;7.33;;;10.60;99.90;;;;;;5044755;28;20458;-80
2022/09/26 01:43:12;;;;;;;7.70;6.97;;;10.60;99.90;;;;;;5044491;28;20454;-80
2022/09/26 01:45:50;;;;;;;7.93;6.97;;;10.60;99.90;;;;;;5043997;28;20513;-80
2022/09/26 01:48:27;;;;;;;8.17;7.27;;;10.60;99.90;;;;;;5043825;28;20442;-80
2022/09/26 01:51:02;;;;;;;7.47;6.70;;;10.60;99.90;;;;;;5044355;28;20554;-80
2022/09/26 01:53:37;;;;;;;8.03;7.17;;;10.60;99.90;;;;;;5044851;28;20540;-79
2022/09/26 01:56:10;;;;;;;7.80;7.10;;;10.60;99.90;;;;;;5045468;28;20435;-79
2022/09/26 01:58:44;;;;;;;7.93;6.60;;;10.60;99.90;;;;;;5042147;28;20485;-78
2022/09/26 02:01:16;;;;;;;6.87;6.17;;;10.70;99.90;;;;;;5043976;28;20511;-79
2022/09/26 02:03:50;;;;;;;6.77;5.90;;;10.70;99.90;;;;;;5047980;28;20475;-79
2022/09/26 02:06:23;;;;;;;26.93;7.37;;;10.70;99.90;;;;;;5050156;28;20443;-79
2022/09/26 02:08:57;;;;;;;7.00;6.30;;;10.70;99.90;;;;;;5065647;28;20462;-79
2022/09/26 02:11:26;;;;;;;6.60;6.00;;;10.70;99.90;;;;;;5048442;28;20446;-79
2022/09/26 02:13:58;;;;;;;6.70;5.83;;;10.70;99.90;;;;;;5048000;28;20470;-79
2022/09/26 02:16:32;;;;;;;7.30;6.60;;;10.70;99.90;;;;;;5048206;28;20439;-79
2022/09/26 02:19:06;;;;;;;7.17;6.27;;;10.70;99.90;;;;;;5047984;28;20473;-79
2022/09/26 02:21:35;;;;;;;7.93;7.13;;;10.70;99.90;;;;;;5048275;28;20509;-79
2022/09/26 02:24:03;;;;;;;7.70;6.27;;;10.70;99.90;;;;;;5048955;28;20481;-79
2022/09/26 02:26:32;;;;;;;7.10;6.40;;;10.70;99.90;;;;;;5048065;28;20461;-80
2022/09/26 02:29:01;;;;;;;7.20;6.50;;;10.70;99.90;;;;;;5048565;28;20458;-80
2022/09/26 02:31:35;;;;;;;7.03;6.30;;;10.70;99.90;;;;;;5047239;28;20451;-79
2022/09/26 02:34:06;;;;;;;7.37;6.67;;;10.80;99.90;;;;;;5057958;28;20453;-79
2022/09/26 02:36:35;;;;;;;6.70;6.10;;;10.80;99.90;;;;;;5057728;28;20438;-78
2022/09/26 02:39:05;;;;;;;7.03;6.27;;;10.80;99.90;;;;;;5058391;28;20486;-79
2022/09/26 02:41:40;;;;;;;10.77;7.23;;;10.80;99.90;;;;;;5050703;28;20430;-79
2022/09/26 02:44:32;;;;;;;7.80;6.13;;;10.80;99.90;;;;;;5063470;28;20474;-78
2022/09/26 02:47:19;;;;;;;6.47;5.83;;;10.80;99.90;;;;;;5045173;28;20465;-79
2022/09/26 02:50:08;;;;;;;7.97;6.83;;;10.80;99.90;;;;;;5045256;28;20507;-77
2022/09/26 02:52:44;;;;;;;9.23;7.03;;;10.80;99.90;;;;;;5045737;28;20481;-80
2022/09/26 02:55:21;;;;;;;8.97;7.33;;;10.80;99.90;;;;;;5045217;28;20455;-79
2022/09/26 02:58:04;;;;;;;7.70;6.80;;;10.80;99.90;;;;;;5046295;28;20439;-79
2022/09/26 03:00:49;;;;;;;7.63;6.93;;;10.80;99.90;;;;;;5046358;28;20466;-79
2022/09/26 03:03:24;;;;;;;7.00;6.03;;;10.80;99.90;;;;;;5047728;28;20535;-80
2022/09/26 03:05:58;;;;;;;8.30;7.17;;;10.90;99.90;;;;;;5044881;28;20457;-79
2022/09/26 03:08:28;;;;;;;7.20;6.60;;;10.80;99.90;;;;;;5043424;28;20430;-78
2022/09/26 03:11:01;;;;;;;8.30;7.47;;;10.90;99.90;;;;;;5045465;28;20478;-79
2022/09/26 03:13:35;;;;;;;7.90;7.10;;;10.90;99.90;;;;;;5044343;28;20494;-80
2022/09/26 03:16:06;;;;;;;7.13;6.43;;;10.90;99.90;;;;;;5043274;28;20435;-80
2022/09/26 03:18:39;;;;;;;8.87;6.93;;;10.90;99.90;;;;;;5045561;28;20439;-80
2022/09/26 03:21:09;;;;;;;8.63;7.70;;;10.90;99.90;;;;;;5044110;28;20832;-78
2022/09/26 03:23:38;;;;;;;7.47;6.77;;;10.90;99.90;;;;;;5045387;28;20471;-79
2022/09/26 03:26:10;;;;;;;10.00;9.10;;;10.90;99.90;;;;;;5043361;28;20455;-77
2022/09/26 03:28:48;;;;;;;8.07;6.47;;;10.90;99.90;;;;;;5042064;28;20439;-77
2022/09/26 03:31:17;;;;;;;7.97;7.17;;;10.90;99.90;;;;;;5042066;28;20451;-77
2022/09/26 03:33:53;;;;;;;7.50;6.80;;;10.90;99.90;;;;;;5042684;28;20513;-77
2022/09/26 03:36:24;;;;;;;6.63;5.97;;;10.90;99.90;;;;;;5040886;28;20447;-79
2022/09/26 03:38:52;;;;;;;8.40;6.60;;;10.90;99.90;;;;;;5042522;28;20459;-78
2022/09/26 03:41:39;;;;;;;7.13;5.90;;;10.90;99.90;;;;;;5043982;28;20450;-79
2022/09/26 03:44:17;;;;;;;6.83;6.23;;;10.90;99.90;;;;;;5042696;28;20505;-78
2022/09/26 03:47:04;;;;;;;7.80;5.60;;;10.90;99.90;;;;;;5044697;28;20964;-79
2022/09/26 03:49:38;;;;;;;7.50;6.60;;;10.90;99.90;;;;;;5043305;28;20435;-78
2022/09/26 03:52:10;;;;;;;7.47;6.77;;;10.90;99.90;;;;;;5041282;28;20450;-78
2022/09/26 03:54:39;;;;;;;7.23;6.63;;;10.90;99.90;;;;;;5041314;28;20957;-79
2022/09/26 03:57:09;;;;;;;7.40;6.67;;;10.90;99.90;;;;;;5041426;28;20530;-78
2022/09/26 03:59:42;;;;;;;7.00;6.33;;;10.90;99.90;;;;;;5059397;28;20463;-77
2022/09/26 04:02:12;;;;;;;7.03;6.33;;;10.90;99.90;;;;;;5042066;28;20514;-77
2022/09/26 04:04:44;;;;;;;7.70;6.70;;;11.00;99.90;;;;;;5042514;28;20450;-77
2022/09/26 04:07:16;;;;;;;8.90;6.80;;;11.00;99.90;;;;;;5042502;28;20443;-77
2022/09/26 04:09:44;;;;;;;7.37;6.67;;;11.00;99.90;;;;;;5042272;28;20940;-78
2022/09/26 04:12:12;;;;;;;6.70;6.10;;;10.90;99.90;;;;;;5043084;28;20530;-80
2022/09/26 04:14:44;;;;;;;7.30;6.60;;;11.00;99.90;;;;;;5041936;28;20446;-78
2022/09/26 04:17:12;;;;;;;7.27;6.67;;;11.00;99.90;;;;;;5038201;28;20458;-78
2022/09/26 04:19:44;;;;;;;9.70;7.37;;;11.00;99.90;;;;;;5038241;28;20443;-80
2022/09/26 04:22:12;;;;;;;7.57;6.17;;;11.00;99.90;;;;;;5037431;28;20899;-78
2022/09/26 04:24:43;;;;;;;8.70;6.67;;;11.00;99.90;;;;;;5037929;28;20537;-80
2022/09/26 04:27:14;;;;;;;8.37;6.30;;;11.00;99.90;;;;;;5038114;28;20792;-79
2022/09/26 04:29:45;;;;;;;8.03;6.27;;;11.00;99.90;;;;;;5054165;28;20470;-79
2022/09/26 04:32:19;;;;;;;6.47;5.80;;;11.00;99.90;;;;;;5037099;28;21035;-79
2022/09/26 04:35:07;;;;;;;7.83;6.10;;;11.00;99.90;;;;;;5038439;28;20418;-79
2022/09/26 04:37:35;;;;;;;9.70;6.77;;;11.00;99.90;;;;;;5036715;28;20881;-79
2022/09/26 04:40:06;;;;;;;7.20;6.03;;;11.10;99.90;;;;;;5036494;28;20843;-78
2022/09/26 04:42:37;;;;;;;8.27;7.03;;;11.00;99.90;;;;;;5037291;28;20462;-78
2022/09/26 04:45:06;;;;;;;7.70;6.97;;;11.10;99.90;;;;;;5037550;28;20451;-78
2022/09/26 04:47:34;;;;;;;7.87;6.37;;;11.10;99.90;;;;;;5036412;28;20789;-78
2022/09/26 04:50:34;;;;;;;9.33;7.13;;;11.10;99.90;;;;;;5038010;28;20447;-78
2022/09/26 04:53:06;;;;;;;6.50;5.73;;;11.10;99.90;;;;;;5036689;28;20493;-79
2022/09/26 04:55:43;;;;;;;8.23;5.93;;;11.10;99.90;;;;;;5036744;28;20465;-78
2022/09/26 04:58:12;;;;;;;7.40;6.13;;;11.10;99.90;;;;;;5036962;28;20443;-79
2022/09/26 05:00:46;;;;;;;7.60;6.30;;;11.10;99.90;;;;;;5036716;28;20491;-79
2022/09/26 05:03:18;;;;;;;8.10;6.10;;;11.10;99.90;;;;;;5037310;28;20859;-79
2022/09/26 05:05:47;;;;;;;7.33;6.07;;;11.10;99.90;;;;;;5052894;28;20459;-79
2022/09/26 05:08:15;;;;;;;7.33;5.97;;;11.10;99.90;;;;;;5036224;28;20481;-79
2022/09/26 05:10:51;;;;;;;6.13;5.53;;;11.20;99.90;;;;;;5036030;28;20459;-78
2022/09/26 05:13:19;;;;;;;5.90;5.30;;;11.20;99.90;;;;;;5036480;28;20546;-78
2022/09/26 05:15:48;;;;;;;6.70;6.00;;;11.20;99.90;;;;;;5036324;28;20451;-79
2022/09/26 05:18:17;;;;;;;9.13;6.00;;;11.20;99.90;;;;;;5035098;28;20454;-78
2022/09/26 05:20:47;;;;;;;6.77;5.43;;;11.20;99.90;;;;;;5035805;28;20467;-78
2022/09/26 05:26:18;;;;;;;10.10;6.17;;;11.20;99.90;;;;;;5035583;28;20470;-78
2022/09/26 05:26:18;;;;;;;7.63;5.60;;;11.20;99.90;;;;;;5035719;28;20497;-78
2022/09/26 05:28:50;;;;;;;6.20;5.63;;;11.20;99.90;;;;;;5035725;28;20458;-79
2022/09/26 05:31:24;;;;;;;8.07;5.80;;;11.20;99.90;;;;;;5034230;28;20461;-79
2022/09/26 05:33:52;;;;;;;8.03;6.67;;;11.20;99.90;;;;;;5034119;28;20474;-80
2022/09/26 05:36:20;;;;;;;7.07;6.37;;;11.20;99.90;;;;;;5035161;28;20466;-78
2022/09/26 05:38:48;;;;;;;8.20;6.30;;;11.20;99.90;;;;;;5037636;28;20447;-79
2022/09/26 05:41:18;;;;;;;7.03;6.17;;;11.20;99.90;;;;;;5038099;28;20466;-79
2022/09/26 05:43:47;;;;;;;7.47;6.77;;;11.30;99.90;;;;;;5037799;28;20471;-79
2022/09/26 05:46:16;;;;;;;8.43;7.20;;;11.30;99.90;;;;;;5037979;28;20455;-78
2022/09/26 05:48:48;;;;;;;6.97;6.27;;;11.30;99.90;;;;;;5037189;28;20482;-77
2022/09/26 05:51:21;;;;;;;7.90;7.10;;;11.30;99.90;;;;;;5037596;28;20442;-79
2022/09/26 05:53:49;;;;;;;7.90;6.97;;;11.30;99.90;;;;;;5038013;28;20521;-78
2022/09/26 05:56:22;;;;;;;7.90;7.10;;;11.30;99.90;;;;;;5038065;28;20458;-79
2022/09/26 05:59:09;;;;;;;8.73;7.77;;;11.30;99.90;;;;;;5039816;28;20446;-79
2022/09/26 06:01:57;;;;;;;7.90;6.97;;;11.30;99.90;;;;;;5038725;28;20464;-79
2022/09/26 06:04:48;;;;;;;8.50;7.67;;;11.30;99.90;;;;;;5039394;28;20435;-79
2022/09/26 06:07:44;;;;;;;10.07;7.70;;;11.30;99.90;;;;;;5038187;28;20513;-79
2022/09/26 06:10:24;;;;;;;7.67;6.97;;;11.30;99.90;;;;;;5039424;28;20457;-79
2022/09/26 06:13:02;;;;;;;8.13;7.30;;;11.30;99.90;;;;;;5039104;28;20485;-78
2022/09/26 06:15:35;;;;;;;8.30;7.37;;;11.30;99.90;;;;;;5038884;28;20511;-79
2022/09/26 06:18:04;;;;;;;9.60;8.13;;;11.30;99.90;;;;;;5038023;28;20466;-79
2022/09/26 06:20:34;;;;;;;14.80;8.73;;;11.30;99.90;;;;;;5038335;28;20446;-78
2022/09/26 06:23:03;;;;;;;10.83;8.13;;;11.40;99.90;;;;;;5038551;28;20470;-79
2022/09/26 06:25:32;;;;;;;9.83;8.07;;;11.30;99.90;;;;;;5039015;28;20462;-80
2022/09/26 06:28:03;;;;;;;9.57;8.10;;;11.30;99.90;;;;;;5038889;28;20546;-79
2022/09/26 06:30:32;;;;;;;9.63;8.43;;;11.30;99.90;;;;;;5000960;28;1106051;-81
2022/09/26 06:33:10;;;;;;;9.43;8.53;;;11.30;99.90;;;;;;5041110;28;20852;-80
2022/09/26 06:36:13;;;;;;;10.50;9.13;;;11.30;99.90;;;;;;5028391;28;20450;-81
2022/09/26 06:38:41;;;;;;;10.07;9.07;;;11.40;99.90;;;;;;5040239;28;20956;-80
2022/09/26 06:41:15;;;;;;;9.77;8.80;;;11.40;99.90;;;;;;5040244;28;20549;-80
2022/09/26 06:43:45;;;;;;;10.70;9.40;;;11.40;99.90;;;;;;5040227;28;20905;-80
2022/09/26 06:46:30;;;;;;;10.03;9.10;;;11.30;99.90;;;;;;5039545;28;20458;-79
2022/09/26 06:49:12;;;;;;;10.77;8.77;;;11.40;99.90;;;;;;5039187;28;20439;-80
2022/09/26 06:52:00;;;;;;;10.67;9.57;;;11.40;99.90;;;;;;5040548;28;20454;-80
2022/09/26 06:54:28;;;;;;;9.97;9.07;;;11.40;99.90;;;;;;5039997;28;20442;-79
2022/09/26 06:56:57;;;;;;;10.13;9.17;;;11.40;99.90;;;;;;5039624;28;20457;-80
2022/09/26 06:59:27;;;;;;;11.60;9.20;;;11.40;99.90;;;;;;5040320;28;20447;-81
2022/09/26 07:02:16;;;;;;;11.77;10.23;;;11.40;99.90;;;;;;5040433;28;20490;-81
2022/09/26 07:05:01;;;;;;;11.10;10.10;;;11.40;99.90;;;;;;5039332;28;20534;-80
2022/09/26 07:07:44;;;;;;;11.40;10.13;;;11.50;99.90;;;;;;5038943;28;20450;-80
2022/09/26 07:10:23;;;;;;;13.53;11.13;;;11.50;99.90;;;;;;5039451;28;21027;-80
2022/09/26 07:13:02;;;;;;;10.67;9.67;;;11.50;99.90;;;;;;5039314;28;20554;-81
2022/09/26 07:15:33;;;;;;;11.60;10.40;;;11.50;99.90;;;;;;5039838;28;20987;-79
2022/09/26 07:18:10;;;;;;;10.30;9.30;;;11.60;99.90;;;;;;5039357;28;20550;-80
2022/09/26 07:20:55;;;;;;;10.77;9.70;;;11.60;99.90;;;;;;5039598;28;20443;-80
2022/09/26 07:23:46;;;;;;;15.47;10.13;;;11.60;99.90;;;;;;5040175;28;20471;-80
2022/09/26 07:26:17;;;;;;;11.30;10.20;;;11.70;99.90;;;;;;5039134;28;20482;-80
2022/09/26 07:28:45;;;;;;;11.30;10.20;;;11.70;99.90;;;;;;5038340;28;20459;-80
2022/09/26 07:31:22;;;;;;;10.60;9.50;;;11.80;99.90;;;;;;5038462;28;20451;-81
2022/09/26 07:34:07;;;;;;;10.73;9.73;;;11.80;99.90;;;;;;5040679;28;20454;-79
2022/09/26 07:36:39;;;;;;;11.83;9.80;;;11.80;99.90;;;;;;5040248;28;20435;-81
2022/09/26 07:39:09;;;;;;;10.00;8.90;;;11.90;99.90;;;;;;5039901;28;20459;-78
2022/09/26 07:41:37;;;;;;;9.47;8.60;;;11.90;99.90;;;;;;5039612;28;20553;-78
2022/09/26 07:44:06;;;;;;;11.07;9.97;;;11.90;99.90;;;;;;5038022;28;20498;-80
2022/09/26 07:52:36;;;;;;;8.67;7.93;;;12.00;99.90;;;;;;5039976;28;20509;-78
2022/09/26 07:55:22;;;;;;;10.23;9.20;;;12.10;99.90;;;;;;5042124;28;20419;-80
2022/09/26 07:58:28;;;;;;;8.53;7.47;;;12.10;99.90;;;;;;4979785;28;20957;-81
2022/09/26 08:01:22;;;;;;;9.33;8.23;;;12.20;99.90;;;;;;4979395;28;20442;-81
2022/09/26 08:04:15;;;;;;;8.60;7.70;;;12.20;99.90;;;;;;5034359;28;20971;-80
2022/09/26 08:06:44;;;;;;;8.67;7.80;;;12.30;99.90;;;;;;5046499;28;20431;-82
2022/09/26 08:09:12;;;;;;;9.37;7.80;;;12.30;99.90;;;;;;5046631;28;20479;-81
2022/09/26 08:12:09;;;;;;;8.37;7.57;;;12.30;99.90;;;;;;5041838;28;20435;-79
2022/09/26 08:15:04;;;;;;;11.80;8.13;;;12.40;99.90;;;;;;5040238;28;20462;-81
2022/09/26 08:17:44;;;;;;;8.70;7.70;;;12.50;99.90;;;;;;5042129;28;20786;-80
2022/09/26 08:20:14;;;;;;;7.83;6.90;;;12.50;99.90;;;;;;5040893;28;20814;-81
2022/09/26 08:22:42;;;;;;;8.87;8.07;;;12.60;99.90;;;;;;5041555;28;20483;-81
2022/09/26 08:25:13;;;;;;;8.97;7.40;;;12.60;99.90;;;;;;5040864;28;20458;-81
2022/09/26 08:27:59;;;;;;;8.10;7.30;;;12.70;99.90;;;;;;5041446;28;20474;-82
2022/09/26 08:30:30;;;;;;;7.53;6.63;;;12.70;99.90;;;;;;5040949;28;20461;-82
2022/09/26 08:33:01;;;;;;;8.00;7.20;;;12.70;99.90;;;;;;5041791;28;20490;-79
2022/09/26 08:35:37;;;;;;;8.80;7.70;;;12.70;99.90;;;;;;5040959;28;20439;-81
2022/09/26 08:38:31;;;;;;;9.43;8.13;;;12.70;99.90;;;;;;5033024;28;20455;-82
2022/09/26 08:41:35;;;;;;;9.00;7.67;;;12.70;99.90;;;;;;5035368;28;20530;-80
2022/09/26 08:44:40;;;;;;;7.33;6.63;;;12.80;99.90;;;;;;5039199;28;20481;-81
2022/09/26 08:47:42;;;;;;;8.73;7.67;;;12.80;99.90;;;;;;5039691;28;20506;-81
2022/09/26 08:50:33;;;;;;;8.00;7.27;;;12.80;99.90;;;;;;5038824;28;20423;-80
2022/09/26 08:53:09;;;;;;;8.20;7.03;;;12.80;99.90;;;;;;5038829;28;20462;-80
2022/09/26 08:55:47;;;;;;;9.83;8.30;;;12.80;99.90;;;;;;5038111;28;20480;-80
2022/09/26 08:58:19;;;;;;;8.07;7.20;;;12.80;99.90;;;;;;5037622;28;20509;-80
2022/09/26 09:00:57;;;;;;;8.40;7.60;;;12.80;99.90;;;;;;5036144;28;20857;-80
2022/09/26 09:03:31;;;;;;;8.60;7.70;;;12.80;99.90;;;;;;5035689;28;21011;-80
2022/09/26 09:06:06;;;;;;;8.47;7.17;;;12.80;99.90;;;;;;5036773;28;20475;-80
2022/09/26 09:08:39;;;;;;;8.57;7.37;;;12.90;99.90;;;;;;5036460;28;20859;-81
2022/09/26 09:11:37;;;;;;;12.03;8.37;;;12.90;99.90;;;;;;5036349;28;20481;-82
2022/09/26 09:14:17;;;;;;;9.50;8.40;;;12.90;99.90;;;;;;5036383;28;20510;-81
2022/09/26 09:17:17;;;;;;;10.13;8.67;;;12.90;99.90;;;;;;5036339;28;20469;-81
2022/09/26 09:20:10;;;;;;;8.43;7.63;;;12.80;99.90;;;;;;5036932;28;20519;-82
2022/09/26 09:23:01;;;;;;;9.83;8.93;;;12.90;99.90;;;;;;5038603;28;20486;-80
2022/09/26 09:25:42;;;;;;;9.57;8.57;;;12.90;99.90;;;;;;5035886;28;21018;-79
2022/09/26 09:28:22;;;;;;;8.40;7.60;;;12.90;99.90;;;;;;5036883;28;20884;-78
2022/09/26 09:30:55;;;;;;;9.30;8.40;;;12.90;99.90;;;;;;5041894;28;20443;-81
2022/09/26 09:33:57;;;;;;;9.17;8.27;;;12.90;99.90;;;;;;5020065;28;20468;-81
2022/09/26 09:36:57;;;;;;;9.53;8.70;;;12.80;99.90;;;;;;5002962;28;20804;-80
2022/09/26 09:39:50;;;;;;;9.63;8.23;;;12.80;99.90;;;;;;5035834;28;20458;-82
2022/09/26 09:42:36;;;;;;;9.33;8.30;;;12.80;99.90;;;;;;5038141;28;20474;-80
2022/09/26 09:45:06;;;;;;;8.87;7.93;;;12.80;99.90;;;;;;5038297;28;20446;-81
2022/09/26 09:47:39;;;;;;;8.70;7.47;;;12.80;99.90;;;;;;5037770;28;20451;-81
2022/09/26 09:50:14;;;;;;;8.97;7.17;;;12.80;99.90;;;;;;5036456;28;20445;-80
2022/09/26 09:52:52;;;;;;;8.80;7.90;;;12.80;99.90;;;;;;5034744;28;20466;-80
2022/09/26 09:55:36;;;;;;;8.47;7.60;;;12.80;99.90;;;;;;5034740;28;20504;-81
2022/09/26 09:58:24;;;;;;;8.03;7.30;;;12.70;99.90;;;;;;5034920;28;20928;-81
2022/09/26 10:01:03;;;;;;;9.70;7.10;;;12.80;99.90;;;;;;5036985;28;20447;-81
2022/09/26 10:03:41;;;;;;;9.47;6.40;;;12.70;99.90;;;;;;5038277;28;20509;-81
2022/09/26 10:06:12;;;;;;;7.23;6.53;;;12.70;99.90;;;;;;5036639;28;20438;-81
2022/09/26 10:09:12;;;;;;;7.60;6.90;;;12.70;99.90;;;;;;5038416;28;20442;-81
2022/09/26 10:12:29;;;;;;;8.23;7.13;;;12.70;99.90;;;;;;5038836;28;20443;-81
2022/09/26 10:15:19;;;;;;;8.23;6.43;;;12.70;99.90;;;;;;5040354;28;20431;-81
2022/09/26 10:18:07;;;;;;;9.10;6.90;;;12.70;99.90;;;;;;5042468;28;20877;-82
2022/09/26 10:21:31;;;;;;;8.47;7.77;;;12.70;99.90;;;;;;5032121;28;20435;-82
2022/09/26 10:24:02;;;;;;;7.93;7.13;;;12.70;99.90;;;;;;5042440;28;21073;-82
2022/09/26 10:26:46;;;;;;;8.90;8.07;;;12.70;99.90;;;;;;5044727;28;20844;-82
2022/09/26 10:29:33;;;;;;;9.20;8.10;;;12.80;99.90;;;;;;5043981;28;20537;-81
2022/09/26 10:32:03;;;;;;;10.60;9.60;;;12.80;99.90;;;;;;5046421;28;20500;-82
2022/09/26 10:34:35;;;;;;;13.00;9.33;;;12.90;99.90;;;;;;5044793;28;20466;-83
2022/09/26 10:37:24;;;;;;;12.07;10.80;;;12.90;99.90;;;;;;5045640;28;20454;-83
2022/09/26 10:42:47;;;;;;;11.40;10.40;;;12.90;99.90;;;;;;5045301;28;20474;-82
2022/09/26 10:45:18;;;;;;;12.83;11.63;;;12.90;99.90;;;;;;5044899;28;20482;-83
2022/09/26 10:48:06;;;;;;;12.73;11.50;;;13.00;99.90;;;;;;5043869;28;20430;-83
2022/09/26 10:51:00;;;;;;;12.17;10.97;;;13.00;99.90;;;;;;5045053;28;20461;-82
2022/09/26 10:53:55;;;;;;;13.83;12.60;;;13.00;99.90;;;;;;5045858;28;20467;-83
2022/09/26 10:56:27;;;;;;;12.27;11.17;;;13.10;99.90;;;;;;5044701;28;20492;-81
2022/09/26 10:58:59;;;;;;;14.47;13.07;;;13.10;99.90;;;;;;5043583;28;20450;-82
2022/09/26 11:01:30;;;;;;;13.23;11.90;;;13.10;99.90;;;;;;5043710;28;20446;-81
2022/09/26 11:04:12;;;;;;;12.47;11.37;;;13.10;99.90;;;;;;5042595;28;20558;-82
2022/09/26 11:07:01;;;;;;;13.20;11.63;;;13.10;99.90;;;;;;5045768;28;20446;-82
2022/09/26 11:09:45;;;;;;;12.47;11.33;;;13.20;99.90;;;;;;5042849;28;20557;-81
2022/09/26 11:12:24;;;;;;;12.03;10.77;;;13.20;99.90;;;;;;5044796;28;20840;-82
2022/09/26 11:14:56;;;;;;;12.70;11.60;;;13.20;99.90;;;;;;5043837;28;20489;-83
2022/09/26 11:17:43;;;;;;;12.50;11.30;;;13.20;99.90;;;;;;5042000;28;20435;-82
2022/09/26 11:20:24;;;;;;;12.73;11.40;;;13.20;99.90;;;;;;5044949;28;20430;-81
2022/09/26 11:23:01;;;;;;;12.70;10.80;;;13.30;99.90;;;;;;5044553;28;20473;-83
2022/09/26 11:25:38;;;;;;;10.80;9.80;;;13.30;99.90;;;;;;5041260;28;20502;-83
2022/09/26 11:28:12;;;;;;;9.90;9.00;;;13.40;99.90;;;;;;5040367;28;20462;-81
2022/09/26 11:31:05;;;;;;;10.80;9.90;;;13.40;99.90;;;;;;5044097;28;20883;-82
2022/09/26 11:33:44;;;;;;;11.30;9.93;;;13.40;99.90;;;;;;5042153;28;20497;-82
2022/09/26 11:37:02;;;;;;;10.63;9.43;;;13.40;99.90;;;;;;5042278;28;20477;-81
2022/09/26 11:39:45;;;;;;;11.00;8.67;;;13.40;99.90;;;;;;5042345;28;20504;-82
2022/09/26 11:42:25;;;;;;;9.40;7.83;;;13.40;99.90;;;;;;5043171;28;20485;-83
2022/09/26 11:44:57;;;;;;;8.17;7.10;;;13.40;99.90;;;;;;5044225;28;20467;-80
2022/09/26 11:48:05;;;;;;;9.07;7.83;;;13.40;99.90;;;;;;5043924;28;20915;-79
2022/09/26 11:51:02;;;;;;;8.43;7.47;;;13.40;99.90;;;;;;5044762;28;20472;-81
2022/09/26 11:54:10;;;;;;;9.53;8.53;;;13.30;99.90;;;;;;5042990;28;20562;-81
2022/09/26 11:56:50;;;;;;;9.53;8.53;;;13.30;99.90;;;;;;5043813;28;20494;-82
2022/09/26 11:59:39;;;;;;;10.80;7.53;;;13.30;99.90;;;;;;5042865;28;20439;-83
2022/09/26 12:02:25;;;;;;;10.60;7.80;;;13.30;99.90;;;;;;5041207;28;20446;-80
2022/09/26 12:05:04;;;;;;;10.27;8.40;;;13.20;99.90;;;;;;5041724;28;20474;-83
2022/09/26 12:07:42;;;;;;;9.57;8.67;;;13.10;99.90;;;;;;5040808;28;20473;-80
2022/09/26 12:10:25;;;;;;;9.00;8.10;;;13.10;99.90;;;;;;5036132;28;20534;-80
2022/09/26 12:13:10;;;;;;;9.17;7.70;;;13.10;99.90;;;;;;5038899;28;20569;-81
2022/09/26 12:15:47;;;;;;;9.87;8.90;;;13.10;99.90;;;;;;5039802;28;20427;-80
2022/09/26 12:18:23;;;;;;;8.37;7.67;;;13.10;99.90;;;;;;5039645;28;20427;-81
2022/09/26 12:21:11;;;;;;;9.33;8.40;;;13.10;99.90;;;;;;5039167;28;20553;-80
2022/09/26 12:23:47;;;;;;;8.60;7.90;;;13.00;99.90;;;;;;5038402;28;20539;-80
2022/09/26 12:26:22;;;;;;;9.87;8.87;;;13.00;99.90;;;;;;5036858;28;20443;-80
2022/09/26 12:29:06;;;;;;;9.67;8.87;;;13.00;99.90;;;;;;5038165;28;20427;-80
2022/09/26 12:31:49;;;;;;;9.57;8.53;;;13.00;99.90;;;;;;5037304;28;20869;-82
2022/09/26 12:34:38;;;;;;;10.63;9.60;;;12.90;99.90;;;;;;5038431;28;20454;-80
2022/09/26 12:37:22;;;;;;;9.37;8.47;;;13.00;99.90;;;;;;5038397;28;20526;-81
2022/09/26 12:40:28;;;;;;;10.27;9.27;;;12.90;99.90;;;;;;5037580;28;20872;-80
2022/09/26 12:43:19;;;;;;;10.00;9.20;;;12.90;99.90;;;;;;5025796;28;21020;-80
2022/09/26 12:46:12;;;;;;;9.63;8.67;;;12.90;99.90;;;;;;5037926;28;20470;-81
2022/09/26 12:49:00;;;;;;;10.20;9.40;;;12.90;99.90;;;;;;5023857;28;20443;-82
2022/09/26 12:51:42;;;;;;;10.23;9.43;;;12.90;99.90;;;;;;5037565;28;20450;-82
2022/09/26 12:54:33;;;;;;;11.60;10.40;;;12.90;99.90;;;;;;5037985;28;20513;-80
2022/09/26 12:57:10;;;;;;;11.20;10.20;;;12.90;99.90;;;;;;5037133;28;20538;-83
2022/09/26 12:59:57;;;;;;;10.17;9.27;;;12.80;99.90;;;;;;5040540;28;20422;-79
2022/09/26 13:03:03;;;;;;;9.00;8.20;;;12.80;99.90;;;;;;5040381;28;20431;-81
2022/09/26 13:06:03;;;;;;;11.50;10.50;;;12.80;99.90;;;;;;5037976;28;20466;-79
2022/09/26 13:08:45;;;;;;;10.73;9.70;;;12.80;99.90;;;;;;5041619;28;20863;-79
2022/09/26 13:11:24;;;;;;;9.83;8.97;;;12.80;99.90;;;;;;5038433;28;20431;-80
2022/09/26 13:14:36;;;;;;;10.03;9.10;;;12.80;99.90;;;;;;5036674;28;20479;-78
2022/09/26 13:17:12;;;;;;;9.33;8.60;;;12.70;99.90;;;;;;5037869;28;20411;-79
2022/09/26 13:19:45;;;;;;;10.47;9.60;;;12.70;99.90;;;;;;5036029;28;20660;-79
2022/09/26 13:22:26;;;;;;;9.47;8.67;;;12.70;99.90;;;;;;5037471;28;20774;-80
2022/09/26 13:25:01;;;;;;;9.67;8.70;;;12.70;99.90;;;;;;5038807;28;21029;-79
2022/09/26 13:27:37;;;;;;;8.93;8.23;;;12.70;99.90;;;;;;5037663;28;20820;-80
2022/09/26 13:30:07;;;;;;;9.30;8.60;;;12.70;99.90;;;;;;5039185;28;20477;-82
2022/09/26 13:32:49;;;;;;;9.43;8.60;;;12.70;99.90;;;;;;5039749;28;20524;-82
2022/09/26 13:35:22;;;;;;;9.33;8.40;;;12.70;99.90;;;;;;5040819;28;20451;-81
2022/09/26 13:38:01;;;;;;;8.47;7.77;;;12.70;99.90;;;;;;5040403;28;20454;-81
2022/09/26 13:40:40;;;;;;;9.63;8.27;;;12.70;99.90;;;;;;5040215;28;20442;-81
2022/09/26 13:43:21;;;;;;;10.03;9.03;;;12.70;99.90;;;;;;5040770;28;20467;-81
2022/09/26 13:46:01;;;;;;;8.93;8.10;;;12.70;99.90;;;;;;5040159;28;20475;-80
2022/09/26 13:48:41;;;;;;;9.77;8.77;;;12.70;99.90;;;;;;5040252;28;20485;-80
2022/09/26 13:51:19;;;;;;;10.37;9.20;;;12.70;99.90;;;;;;5041518;28;20423;-81
2022/09/26 13:53:58;;;;;;;10.20;9.40;;;12.70;99.90;;;;;;5041719;28;20450;-82